createdAt,value
2022-10-17T00:00:57.108Z,18.33
2022-10-17T00:03:45.240Z,19.98
2022-10-17T00:06:31.755Z,21.97
2022-10-17T00:09:18.035Z,21.83
2022-10-17T00:12:05.933Z,19.65
2022-10-17T00:14:52.578Z,19.67
2022-10-17T00:17:42.221Z,19.52
2022-10-17T00:20:30.600Z,21.50
2022-10-17T00:23:17.579Z,22.58
2022-10-17T00:26:05.832Z,21.23
2022-10-17T00:28:52.886Z,19.95
2022-10-17T00:31:42.194Z,20.60
2022-10-17T00:34:29.557Z,17.80
2022-10-17T00:37:15.996Z,18.60
2022-10-17T00:40:02.597Z,18.30
2022-10-17T00:42:51.205Z,18.07
2022-10-17T00:45:37.584Z,16.98
2022-10-17T00:48:26.798Z,17.48
2022-10-17T00:51:12.859Z,19.83
2022-10-17T00:54:00.675Z,17.92
2022-10-17T00:56:48.040Z,19.77
2022-10-17T00:59:36.958Z,18.10
2022-10-17T01:02:23.353Z,17.08
2022-10-17T01:05:12.175Z,15.38
2022-10-17T01:07:59.641Z,17.70
2022-10-17T01:11:07.829Z,17.87
2022-10-17T01:14:27.134Z,20.23
2022-10-17T01:17:24.917Z,21.60
2022-10-17T01:20:29.102Z,18.10
2022-10-17T01:23:28.360Z,17.23
2022-10-17T01:26:51.849Z,16.12
2022-10-17T01:29:47.971Z,19.92
2022-10-17T01:33:11.784Z,17.75
2022-10-17T01:36:04.891Z,18.00
2022-10-17T01:38:57.731Z,15.82
2022-10-17T01:42:07.397Z,17.33
2022-10-17T01:44:56.425Z,16.62
2022-10-17T01:47:42.806Z,18.00
2022-10-17T01:50:34.960Z,18.23
2022-10-17T01:53:29.363Z,16.62
2022-10-17T01:56:16.339Z,16.77
2022-10-17T01:59:14.807Z,16.00
2022-10-17T02:02:01.004Z,16.30
2022-10-17T02:04:48.681Z,16.00
2022-10-17T02:07:34.925Z,17.12
2022-10-17T02:10:44.699Z,14.80
2022-10-17T02:17:02.507Z,16.35
2022-10-17T02:19:57.464Z,14.98
2022-10-17T02:22:51.549Z,17.67
2022-10-17T02:25:51.714Z,14.98
2022-10-17T02:31:40.128Z,17.60
2022-10-17T02:34:32.642Z,14.98
2022-10-17T02:37:24.194Z,16.48
2022-10-17T02:40:14.490Z,15.60
2022-10-17T02:43:01.214Z,17.43
2022-10-17T02:45:48.994Z,17.23
2022-10-17T02:48:39.192Z,17.70
2022-10-17T02:51:44.533Z,15.93
2022-10-17T02:54:39.978Z,16.10
2022-10-17T02:57:42.218Z,16.45
2022-10-17T03:00:29.275Z,15.18
2022-10-17T03:03:21.117Z,16.33
2022-10-17T03:06:07.718Z,15.02
2022-10-17T03:08:54.186Z,16.10
2022-10-17T03:11:40.682Z,15.23
2022-10-17T03:14:27.176Z,14.63
2022-10-17T03:17:15.628Z,15.27
2022-10-17T03:20:04.693Z,16.52
2022-10-17T03:22:51.511Z,18.42
2022-10-17T03:25:41.251Z,14.87
2022-10-17T03:28:32.331Z,16.02
2022-10-17T03:31:18.845Z,16.15
2022-10-17T03:34:09.831Z,15.77
2022-10-17T03:36:57.328Z,13.90
2022-10-17T03:39:44.889Z,12.55
2022-10-17T03:42:32.448Z,13.88
2022-10-17T03:45:20.378Z,14.63
2022-10-17T03:48:07.648Z,16.08
2022-10-17T03:51:01.374Z,14.63
2022-10-17T03:53:47.542Z,14.32
2022-10-17T03:56:33.987Z,13.77
2022-10-17T03:59:20.494Z,13.50
2022-10-17T04:02:10.251Z,14.02
2022-10-17T04:05:00.042Z,16.50
2022-10-17T04:07:52.526Z,13.02
2022-10-17T04:10:40.639Z,15.57
2022-10-17T04:13:28.481Z,14.50
2022-10-17T04:16:19.583Z,14.40
2022-10-17T04:19:12.861Z,15.93
2022-10-17T04:21:59.853Z,13.77
2022-10-17T04:24:48.544Z,13.93
2022-10-17T04:27:36.095Z,13.80
2022-10-17T04:30:23.388Z,13.43
2022-10-17T04:33:12.597Z,12.75
2022-10-17T04:36:12.210Z,14.87
2022-10-17T04:39:02.931Z,13.20
2022-10-17T04:41:52.056Z,15.17
2022-10-17T04:44:48.792Z,13.85
2022-10-17T04:47:39.507Z,15.05
2022-10-17T04:50:27.326Z,14.77
2022-10-17T04:53:23.321Z,15.68
2022-10-17T04:56:17.381Z,15.45
2022-10-17T04:59:05.014Z,15.55
2022-10-17T05:01:53.674Z,14.20
2022-10-17T05:04:41.664Z,13.65
2022-10-17T05:07:35.682Z,14.65
2022-10-17T05:10:22.877Z,15.30
2022-10-17T05:13:11.777Z,16.70
2022-10-17T05:16:02.482Z,18.33
2022-10-17T05:18:58.524Z,18.33
2022-10-17T05:21:52.562Z,18.17
2022-10-17T05:24:41.440Z,25.17
2022-10-17T05:27:30.619Z,24.02
2022-10-17T05:30:19.431Z,20.98
2022-10-17T05:33:06.631Z,28.00
2022-10-17T05:35:53.977Z,32.60
2022-10-17T05:38:43.768Z,28.67
2022-10-17T05:41:33.024Z,25.48
2022-10-17T05:44:21.883Z,24.05
2022-10-17T05:47:12.085Z,27.15
2022-10-17T05:50:02.945Z,22.20
2022-10-17T05:52:55.777Z,23.52
2022-10-17T05:55:43.355Z,22.70
2022-10-17T06:01:38.667Z,23.20
2022-10-17T06:04:27.951Z,21.92
2022-10-17T06:07:15.706Z,19.52
2022-10-17T06:10:09.172Z,22.27
2022-10-17T06:12:57.671Z,17.95
2022-10-17T06:15:46.227Z,19.17
2022-10-17T06:18:33.643Z,15.98
2022-10-17T06:21:23.624Z,25.10
2022-10-17T06:24:10.127Z,23.25
2022-10-17T06:26:58.058Z,17.58
2022-10-17T06:29:47.520Z,22.37
2022-10-17T06:32:50.777Z,21.23
2022-10-17T06:35:37.684Z,22.87
2022-10-17T06:38:29.553Z,24.60
2022-10-17T06:41:19.334Z,25.90
2022-10-17T06:44:12.724Z,27.33
2022-10-17T06:47:00.957Z,25.42
2022-10-17T06:49:49.214Z,28.27
2022-10-17T06:52:37.557Z,33.95
2022-10-17T06:55:26.887Z,27.02
2022-10-17T06:58:14.430Z,26.45
2022-10-17T07:01:04.243Z,25.95
2022-10-17T07:03:58.712Z,27.45
2022-10-17T07:06:47.542Z,23.40
2022-10-17T07:09:34.747Z,24.80
2022-10-17T07:12:21.864Z,24.20
2022-10-17T07:15:10.239Z,23.02
2022-10-17T07:17:57.567Z,22.17
2022-10-17T07:20:53.923Z,22.17
2022-10-17T07:23:41.832Z,22.85
2022-10-17T07:26:30.682Z,24.02
2022-10-17T07:29:17.703Z,23.38
2022-10-17T07:32:08.838Z,22.37
2022-10-17T07:34:59.684Z,23.55
2022-10-17T07:37:50.045Z,23.40
2022-10-17T07:40:39.530Z,24.80
2022-10-17T07:43:28.530Z,25.02
2022-10-17T07:46:16.206Z,21.75
2022-10-17T07:49:04.488Z,21.23
2022-10-17T07:51:52.964Z,21.05
2022-10-17T07:54:40.598Z,24.73
2022-10-17T07:57:30.536Z,21.45
2022-10-17T08:00:17.497Z,18.75
2022-10-17T08:03:08.287Z,17.17
2022-10-17T08:06:00.498Z,17.67
2022-10-17T08:08:59.510Z,21.10
2022-10-17T08:11:46.864Z,18.83
2022-10-17T08:14:33.779Z,20.43
2022-10-17T08:17:21.853Z,20.23
2022-10-17T08:20:11.915Z,20.85
2022-10-17T08:22:59.985Z,20.45
2022-10-17T08:25:50.946Z,16.60
2022-10-17T08:28:40.559Z,21.12
2022-10-17T08:31:28.909Z,17.15
2022-10-17T08:34:15.943Z,18.98
2022-10-17T08:37:03.271Z,20.20
2022-10-17T08:39:50.042Z,20.00
2022-10-17T08:42:55.484Z,19.17
2022-10-17T08:46:00.543Z,17.40
2022-10-17T08:48:49.573Z,20.02
2022-10-17T08:51:50.171Z,19.55
2022-10-17T08:54:43.065Z,21.95
2022-10-17T08:57:36.507Z,20.52
2022-10-17T09:00:25.427Z,19.40
2022-10-17T09:03:27.716Z,20.02
2022-10-17T09:06:33.451Z,18.75
2022-10-17T09:09:47.081Z,17.00
2022-10-17T09:12:41.804Z,16.98
2022-10-17T09:15:47.993Z,17.00
2022-10-17T09:18:41.771Z,21.70
2022-10-17T09:21:42.214Z,20.02
2022-10-17T09:24:41.693Z,16.25
2022-10-17T09:27:36.061Z,20.30
2022-10-17T09:30:46.248Z,18.58
2022-10-17T09:34:00.224Z,15.00
2022-10-17T09:36:47.045Z,14.47
2022-10-17T09:39:34.619Z,14.07
2022-10-17T09:42:27.921Z,11.98
2022-10-17T09:45:24.919Z,11.93
2022-10-17T09:48:28.780Z,12.10
2022-10-17T09:51:25.595Z,14.38
2022-10-17T09:54:23.836Z,15.48
2022-10-17T09:57:17.515Z,10.48
2022-10-17T10:00:07.572Z,12.40
2022-10-17T10:03:14.546Z,11.15
2022-10-17T10:06:27.862Z,11.23
2022-10-17T10:09:26.098Z,13.57
2022-10-17T10:12:26.770Z,11.95
2022-10-17T10:15:34.292Z,12.15
2022-10-17T10:18:36.542Z,10.90
2022-10-17T10:21:27.536Z,11.32
2022-10-17T10:24:14.720Z,11.10
2022-10-17T10:27:05.782Z,14.05
2022-10-17T10:29:54.701Z,9.97
2022-10-17T10:35:43.607Z,12.70
2022-10-17T10:38:32.710Z,12.20
2022-10-17T10:41:19.842Z,12.10
2022-10-17T10:44:07.512Z,9.75
2022-10-17T10:47:27.467Z,11.32
2022-10-17T10:50:23.094Z,12.50
2022-10-17T10:53:49.751Z,13.65
2022-10-17T10:56:41.525Z,11.65
2022-10-17T10:59:34.310Z,11.23
2022-10-17T11:02:46.821Z,12.53
2022-10-17T11:05:58.237Z,11.25
2022-10-17T11:08:53.730Z,11.73
2022-10-17T11:12:01.519Z,11.80
2022-10-17T11:15:14.989Z,15.63
2022-10-17T11:18:08.037Z,11.67
2022-10-17T11:21:03.740Z,12.48
2022-10-17T11:24:14.737Z,11.10
2022-10-17T11:27:05.884Z,7.85
2022-10-17T11:30:03.725Z,12.18
2022-10-17T11:33:00.368Z,11.57
2022-10-17T11:35:50.591Z,8.63
2022-10-17T11:38:46.381Z,8.50
2022-10-17T11:44:39.581Z,9.27
2022-10-17T11:47:31.666Z,10.40
2022-10-17T11:57:06.853Z,10.97
2022-10-17T11:59:57.696Z,11.57
2022-10-17T12:03:23.767Z,10.23
2022-10-17T12:06:19.514Z,6.93
2022-10-17T12:09:16.271Z,8.50
2022-10-17T12:12:05.136Z,9.45
2022-10-17T12:14:51.852Z,12.23
2022-10-17T12:18:02.670Z,8.95
2022-10-17T12:20:57.978Z,12.20
2022-10-17T12:23:54.064Z,10.32
2022-10-17T12:26:41.833Z,8.77
2022-10-17T12:29:33.607Z,8.98
2022-10-17T12:32:21.416Z,10.57
2022-10-17T12:35:21.500Z,9.33
2022-10-17T12:38:17.739Z,9.18
2022-10-17T12:41:06.755Z,9.00
2022-10-17T12:43:55.542Z,9.15
2022-10-17T12:47:10.696Z,9.37
2022-10-17T12:49:57.184Z,8.68
2022-10-17T12:52:44.348Z,8.20
2022-10-17T12:55:34.336Z,8.30
2022-10-17T12:58:40.550Z,10.13
2022-10-17T13:01:39.585Z,8.27
2022-10-17T13:04:36.668Z,8.43
2022-10-17T13:07:27.213Z,11.53
2022-10-17T13:10:22.238Z,8.00
2022-10-17T13:13:22.783Z,7.18
2022-10-17T13:16:29.350Z,11.43
2022-10-17T13:19:24.019Z,8.50
2022-10-17T13:22:20.752Z,9.30
2022-10-17T13:25:27.490Z,8.05
2022-10-17T13:28:22.890Z,8.30
2022-10-17T13:31:27.758Z,10.07
2022-10-17T15:03:34.607Z,9.32
2022-10-17T15:06:34.834Z,9.48
2022-10-17T15:09:27.571Z,10.35
